x

Neah Bay, - 6nm North Of Cape Flattery, Wa (traffic Separation Lighted Buoy) (46087) Wave Buoy

5:50 - Tue 24th May 2016 All times are PDT. -7 hours from GMT.

  • Sig Wave height 5.2ft
  • Swell Direction
  • Peak Period 9s
  • Average Period 7s
  • Wind
    9mph
  • Sea Temp 54°f
  • Air Temp 55°f
  • Sea Pressure 1016.7mb
  • Neah Bay, - 6nm North Of Cape Flattery, Wa     (traffic Separation Lighted Buoy)
  • Neah Bay, - 6nm North Of Cape Flattery, Wa     (traffic Separation Lighted Buoy)

More Historic Weather Station data

Upgrade to MSW Pro to gain access to the past 30 days of data for over 8000 Wavebouys and Weather Stations around the globe.

Join Pro

Comparision Forecast

View Surf forecast
   
mar. 05/24 5:50 5ft 9s 7s 9
mph
1016.7mb 54f 55f
5:20 5ft 8s 7s 7 9 mph 1016.6mb 54f 55f
4:50 5ft 8s 7s 4 7 mph 1016.7mb 54f 55f
4:20 5ft 8s 6s 2 4 mph 1016.8mb 54f 55f
3:50 5ft 8s  -  2 4 mph 1016.8mb 54f 55f
3:20 5ft 9s 6s 2 4 mph 1016.8mb 53f 55f
2:50 5.5ft 9s 6s 4 7 mph 1016.9mb 53f 55f
2:20 5ft 9s 6s 4 7 mph 1016.8mb 53f 54f
1:50 6ft 8s 7s 7
mph
1016.8mb 53f 54f
1:20 5.5ft 8s 7s 7
mph
1016.7mb 53f 54f
12:50 5ft 9s 7s 7
mph
1016.5mb 53f 53f
12:20 5ft 9s 7s 4 7 mph 1016.3mb 52f 53f
11:50 5ft 9s 7s 7
mph
1016.3mb 52f 53f
11:20 5ft 9s 7s 7 9 mph 1016.3mb 52f 53f
10:50 5.5ft 9s 7s 7 9 mph 1016mb 53f 53f
10:20 5.5ft 9s 7s 7
mph
1015.9mb 53f 53f
9:50 6ft 9s 7s 7
mph
1015.6mb 53f 53f
9:20 5.5ft 10s 7s 7 9 mph 1015.4mb 53f 53f
8:50 5ft 7s 7s 7 9 mph 1015.3mb 53f 53f
8:20 5.5ft 10s 7s 9 11 mph 1015mb 53f 53f
7:50 5.5ft 10s 7s 4 7 mph 1014.8mb 53f 53f
7:20 5.5ft 9s 7s 4
mph
1014.7mb 53f 53f
6:50 5ft 10s 7s 4 7 mph 1014.5mb 53f 53f
6:20 4.5ft 9s 7s 7
mph
1014.4mb 53f 53f
5:50 4.5ft 9s 7s 4 7 mph 1014.3mb 53f 53f
5:20 5ft 10s 7s 9
mph
1014.1mb 53f 53f
4:50 5ft 9s 7s 7 9 mph 1014.1mb 52f 53f
4:20 4.5ft 9s 7s 7 9 mph 1014.1mb 52f 53f
3:50 4.5ft 9s 7s 7 9 mph 1014.1mb 52f 53f
3:20 4ft 9s 7s 7
mph
1014.1mb 52f 53f
2:50 4.5ft 9s 7s 7
mph
1014.1mb 52f 53f
2:20 4.5ft 9s 7s 4 7 mph 1014mb 52f 54f
1:50 4.5ft 10s 7s 4 7 mph 1014mb 53f 53f
1:20 5ft 9s 7s 7
mph
1014.2mb 53f 54f
12:50 5.5ft 9s 8s 7 9 mph 1014.3mb 53f 54f
12:20 5.5ft 10s 7s 7
mph
1014.3mb 53f 53f
lun. 05/23 11:50 7ft 10s 8s 4 7 mph 1014.1mb 53f 53f
11:20 6.5ft 10s 8s 4 7 mph 1014.1mb 53f 53f
10:50 6ft 9s 8s 4 7 mph 1014.1mb 53f 53f
10:20 6ft 9s 8s 7 9 mph 1014.1mb 53f 54f
9:50 6ft 9s 8s 11
mph
1014mb 53f 54f
9:20 6ft 9s 8s 9 11 mph 1013.8mb 54f 54f
8:50 5.5ft 10s 8s 9 11 mph 1013.8mb 54f 54f
8:20 5ft 9s 8s 9 11 mph 1013.7mb 54f 54f
7:50 6ft 9s 8s 9 11 mph 1013.7mb 55f 55f
7:20 6ft 9s 8s 9 11 mph 1013.6mb 55f 55f
6:50 6ft 9s 8s 9 11 mph 1013.7mb 55f 55f
6:20 5ft 9s 8s 9 11 mph 1013.8mb 55f 55f
5:50 5ft 9s 7s 9 11 mph 1013.9mb 55f 55f
5:20 5.5ft 10s 8s 9
mph
1014.1mb 55f 55f
4:50 5.5ft 9s 7s 9
mph
1014.1mb 55f 55f
4:20 5.5ft 10s 7s 9
mph
1014.2mb 55f 55f
3:50 5ft 9s 7s 9 11 mph 1014.2mb 54f 55f
3:20 5ft 8s 7s 7 9 mph 1014.2mb 54f 55f
2:50 5.5ft 9s 7s 7 9 mph 1014.2mb 55f 55f
2:20 5ft 10s 7s 7
mph
1014.3mb 54f 55f
1:50 5.5ft 9s 7s 4 7 mph 1014.3mb 54f 55f
1:20 5.5ft 9s 7s 4 7 mph 1014.2mb 54f 54f
12:50 5ft 9s 8s 4 7 mph 1014.1mb 54f 54f
12:20 5.5ft 9s 8s 4 7 mph 1014.1mb 54f 54f
11:50 5ft 10s 8s 7
mph
1014mb 53f 54f
11:20 6ft 9s 8s 4 9 mph 1014mb 53f 54f
10:50 6ft 9s 8s 4 7 mph 1013.8mb 53f 54f
10:20 5ft 10s 8s 2 4 mph 1014.1mb 53f 53f
9:50 6ft 10s 8s 4
mph
1014mb 53f 53f
9:20 5ft 10s 8s 2 4 mph 1014mb 53f 53f
8:50 5ft 9s 8s 2 4 mph 1013.8mb 52f 53f
8:20 5ft 9s 8s 2
mph
1014mb 52f 53f
7:50 5ft 9s 8s 2 4 mph 1013.8mb 53f 53f
7:20 5ft 9s 8s 2 4 mph 1013.6mb 53f 53f
6:50 4.5ft 9s 8s  -  2 mph 1013.4mb 53f 53f
6:20 4.5ft 9s 8s 2 4 mph 1013.2mb 53f 53f
5:50 4ft 9s 7s 4 9 mph 1013.3mb 53f 53f
5:20 4.5ft 9s 7s 2
mph
1013.1mb 53f 53f
4:50 4ft 8s 7s  -  2 mph 1013mb 53f 53f
4:20 3.5ft 8s 6s 7 9 mph 1012.9mb 53f 53f
3:50 3.5ft 8s  -  4
mph
1013mb 53f 53f
3:20 3.5ft 8s 6s 7 9 mph 1012.9mb 53f 53f
2:50 3.5ft 8s 6s 9 11 mph 1013mb 53f 52f
2:20 3ft 8s 6s 2
mph
1013.1mb 53f 53f
1:50 3ft 8s 6s 9
mph
1013.1mb 53f 53f
1:20 3.5ft 8s 6s 7
mph
1013.2mb 53f 53f
12:50 3.5ft 8s 6s 7
mph
1013.2mb 53f 53f
12:20 3.5ft 8s 6s 2 4 mph 1013.4mb 53f 53f
dim. 05/22 11:50 3.5ft 8s 6s 2 4 mph 1013.3mb 53f 54f
11:20 3.5ft 8s 7s 4
mph
1013.4mb 53f 54f
10:50 3.5ft 7s 7s 4 7 mph 1013.3mb 53f 54f
10:20 3.5ft 8s 7s 7
mph
1013.3mb 53f 54f
9:50 3ft 8s 6s 7 9 mph 1013.3mb 54f 54f
9:20 3ft 7s 6s 7
mph
1013.1mb 54f 54f
8:50 3ft 7s 6s 7
mph
1012.8mb 54f 54f
8:20 3ft 8s 6s 7 9 mph 1012.9mb 54f 54f
7:50 3ft 7s 6s 9
mph
1013mb 54f 55f
7:20 3.5ft 8s 6s 4 7 mph 1013.1mb 55f 55f
6:50 3ft 8s 6s 2
mph
1013.1mb 55f 55f
6:20 2.5ft 7s 6s 4
mph
1013.2mb 55f 55f
5:50 3ft 8s 6s 7
mph
1013.3mb 55f 55f
5:20 3ft 8s 6s 4 7 mph 1013.3mb 55f 55f
4:50 3ft 8s 6s 7
mph
1013.2mb 55f 55f
4:20 3ft 8s 6s 4 7 mph 1013.3mb 55f 55f
3:50 3ft 8s 6s 4
mph
1013.3mb 54f 54f
3:20 3.5ft 8s 5s 2 4 mph 1013.3mb 53f 54f
2:50 3.5ft 8s 5s 2
mph
1013.1mb 53f 54f
2:20 3.5ft 8s 6s 2
mph
1013mb 53f 54f
1:50 3.5ft 8s 6s  -  2 mph 1013.1mb 53f 53f
1:20 4ft 8s 6s 2 4 mph 1013mb 53f 53f
12:50 4ft 8s 6s 4 7 mph 1013mb 53f 53f
12:20 3.5ft 8s 6s 4 7 mph 1013mb 53f 53f
11:50 3.5ft 8s 6s 7
mph
1013mb 53f 53f
11:20 3.5ft 8s 7s 7 9 mph 1013.1mb 53f 53f
10:50 4.5ft 8s 7s 2 4 mph 1013.2mb 53f 53f
10:20 4ft 8s 7s 4 7 mph 1013.2mb 53f 52f
9:50 4.5ft 8s 7s 7 9 mph 1013.1mb 52f 53f
9:20 4.5ft 8s 7s 2 4 mph 1013.1mb 52f 52f
8:50 4.5ft 8s 7s 2 4 mph 1013.2mb 52f 52f
8:20 4ft 8s 7s 7 9 mph 1013.2mb 52f 52f
7:50 4.5ft 8s 7s 7
mph
1013mb 53f 52f
7:20 4.5ft 9s 7s 7 9 mph 1012.8mb 53f 52f
6:50 4.5ft 8s 7s 7 9 mph 1012.7mb 53f 53f
6:20 4.5ft 8s 7s 7 9 mph 1012.6mb 52f 53f
5:50 4.5ft 8s 7s 4 7 mph 1012.3mb 52f 53f
5:20 4.5ft 8s 7s 9
mph
1012.2mb 53f 53f
4:50 4ft 8s 6s 7 9 mph 1012.1mb 53f 53f
4:20 4.5ft 8s 6s 9 11 mph 1012.1mb 53f 53f
3:50 4.5ft 7s 6s 7 9 mph 1012.2mb 53f 53f
3:20 4.5ft 8s 6s 7 9 mph 1012.1mb 53f 53f
2:50 3.5ft 7s 6s 7 9 mph 1011.8mb 52f 53f
2:20 4ft 8s 6s 7 9 mph 1011.7mb 52f 53f
1:50 3.5ft 8s 6s 4 7 mph 1011.8mb 52f 53f
1:20 3.5ft 8s 6s 4 7 mph 1011.8mb 51f 53f
12:50 4ft 9s 6s 4 7 mph 1011.9mb 51f 52f
12:20 4ft 8s 6s 4
mph
1012.1mb 52f 53f
sam. 05/21 11:50 4ft 8s 6s 4
mph
1012.2mb 52f 53f
11:20 4.5ft 9s 7s 7
mph
1012.1mb 53f 53f
10:50 4.5ft 8s 7s 7 9 mph 1012.1mb 53f 53f
10:20 4.5ft 9s 7s 7 9 mph 1012.1mb 53f 54f
9:50 4.5ft 9s 7s 11 13 mph 1011.8mb 53f 54f
9:20 4ft 8s 7s 9 11 mph 1011.5mb 53f 54f
8:50 4.5ft 9s 7s 4 7 mph 1011.4mb 53f 54f
8:20 4.5ft 9s 7s 7
mph
1011.1mb 53f 54f
7:50 4.5ft 8s 7s 9
mph
1010.9mb 53f 54f
7:20 4.5ft 9s 7s 9 11 mph 1010.6mb 53f 54f
6:50 4.5ft 9s 7s 11 13 mph 1010.1mb 54f 55f
6:20 4.5ft 9s 7s 11 13 mph 1010.1mb 54f 55f
5:50 4.5ft 9s 7s 9 11 mph 1010mb 54f 55f
5:20 4.5ft 9s 7s 7 9 mph 1009.9mb 54f 55f
4:50 4.5ft 9s 7s 9 11 mph 1009.7mb 54f 55f
4:20 4.5ft 9s 6s 11 13 mph 1009.6mb 54f 54f
3:50 4.5ft 8s 6s 11 13 mph 1009.3mb 54f 54f
3:20 5ft 9s 6s 13 16 mph 1009.1mb 54f 54f
2:50 4.5ft 8s 6s 13 16 mph 1009.1mb 54f 54f
2:20 5ft 9s 6s 13 16 mph 1008.8mb 54f 54f
1:50 5ft 8s 6s 13 16 mph 1008.4mb 54f 54f
1:20 5ft 8s 6s 13 16 mph 1008.3mb 54f 54f
12:50 4.5ft 8s 6s 11 13 mph 1008.4mb 54f 53f
12:20 5.5ft 8s 7s 11 13 mph 1008.5mb 53f 53f
11:50 5ft 9s 7s 13 16 mph 1008.3mb 53f 53f
11:20 5.5ft 8s 7s 11 13 mph 1008.1mb 53f 53f
10:50 5ft 9s 7s 11 13 mph 1008mb 53f 53f
10:20 5.5ft 9s 7s 11 16 mph 1007.9mb 53f 53f
9:50 6ft 8s 7s 11 16 mph 1007.8mb 53f 52f
9:20 5ft 9s 7s 13 16 mph 1007.7mb 52f 52f
8:50 6.5ft 9s 8s 11 16 mph 1007.8mb 52f 52f
8:20 6ft 9s 8s 13 18 mph 1007.7mb 52f 52f
7:50 5ft 10s 7s 13 16 mph 1007.7mb 52f 51f
7:20 5.5ft 10s 8s 16 18 mph 1007.4mb 52f 51f
6:50 5.5ft 9s 8s 16 18 mph 1007.4mb 52f 51f
6:20 6ft 10s 8s 13 18 mph 1007.3mb 52f 51f
5:50 6.5ft 10s 8s 11 16 mph 1007.2mb 52f 51f
5:20 5.5ft 10s 7s 4 9 mph 1007.3mb 53f 52f
4:50 6ft 10s 7s 4
mph
1007.4mb 53f 51f
4:20 5ft 9s 7s 7 9 mph 1007.4mb 53f 52f
3:50 6ft 10s 7s 4 7 mph 1007.5mb 53f 51f
3:20 6ft 9s 7s 4 7 mph 1007.6mb 53f 52f
2:50 7ft 10s 8s 7
mph
1007.7mb 53f 53f
2:20 7ft 10s 8s 4 7 mph 1007.8mb 53f 52f
1:50 7ft 10s 7s 7
mph
1007.8mb 53f 52f